createdAt,value
2022-08-07T00:01:44.148Z,21.95
2022-08-07T00:04:03.582Z,22.51
2022-08-07T00:06:33.391Z,22.80
2022-08-07T00:09:16.217Z,22.75
2022-08-07T00:11:54.465Z,22.24
2022-08-07T00:14:30.377Z,22.43
2022-08-07T00:16:59.297Z,22.21
2022-08-07T00:19:34.263Z,22.81
2022-08-07T00:22:24.610Z,22.26
2022-08-07T00:25:05.074Z,22.02
2022-08-07T00:27:51.678Z,22.30
2022-08-07T00:30:27.067Z,22.61
2022-08-07T00:32:56.822Z,22.74
2022-08-07T00:35:25.929Z,22.60
2022-08-07T00:37:54.847Z,22.34
2022-08-07T00:40:36.682Z,22.04
2022-08-07T00:43:10.583Z,22.84
2022-08-07T00:45:59.526Z,22.89
2022-08-07T00:48:31.997Z,22.71
2022-08-07T00:51:01.359Z,22.93
2022-08-07T00:53:39.378Z,22.86
2022-08-07T00:56:17.806Z,22.80
2022-08-07T00:58:49.801Z,22.80
2022-08-07T01:01:21.294Z,22.57
2022-08-07T01:03:56.659Z,21.63
2022-08-07T01:06:28.678Z,21.88
2022-08-07T01:08:59.372Z,21.84
2022-08-07T01:12:09.881Z,22.68
2022-08-07T01:14:21.200Z,22.83
2022-08-07T01:16:58.596Z,22.78
2022-08-07T01:19:32.150Z,22.54
2022-08-07T01:22:03.836Z,22.81
2022-08-07T01:24:37.456Z,22.42
2022-08-07T01:27:06.429Z,22.47
2022-08-07T01:29:48.410Z,22.30
2022-08-07T01:32:19.128Z,22.06
2022-08-07T01:34:51.320Z,22.44
2022-08-07T01:37:21.062Z,22.70
2022-08-07T01:39:50.241Z,22.52
2022-08-07T01:42:38.433Z,22.32
2022-08-07T01:45:09.987Z,22.58
2022-08-07T01:48:20.223Z,21.23
2022-08-07T01:50:33.708Z,21.87
2022-08-07T01:53:08.945Z,22.30
2022-08-07T01:55:42.553Z,22.53
2022-08-07T01:58:27.755Z,22.38
2022-08-07T02:01:10.385Z,22.20
2022-08-07T02:03:58.013Z,22.22
2022-08-07T02:06:30.722Z,22.20
2022-08-07T02:09:04.455Z,21.89
2022-08-07T02:12:03.075Z,22.23
2022-08-07T02:14:40.226Z,22.05
2022-08-07T02:17:09.476Z,21.88
2022-08-07T02:20:04.156Z,21.86
2022-08-07T02:22:30.417Z,22.38
2022-08-07T02:25:00.810Z,22.34
2022-08-07T02:27:34.754Z,22.43
2022-08-07T02:30:06.411Z,21.84
2022-08-07T02:32:39.633Z,22.30
2022-08-07T02:36:28.378Z,22.33
2022-08-07T02:38:17.286Z,21.56
2022-08-07T02:40:55.666Z,22.30
2022-08-07T02:43:24.490Z,22.22
2022-08-07T02:46:02.155Z,22.27
2022-08-07T02:48:30.934Z,22.21
2022-08-07T02:51:04.296Z,22.32
2022-08-07T02:53:38.526Z,22.23
2022-08-07T02:56:21.210Z,21.75
2022-08-07T02:58:54.073Z,22.46
2022-08-07T03:01:35.323Z,22.29
2022-08-07T03:04:12.227Z,21.20
2022-08-07T03:06:44.859Z,21.30
2022-08-07T03:09:14.772Z,21.98
2022-08-07T03:12:06.631Z,21.99
2022-08-07T03:14:37.341Z,22.25
2022-08-07T03:17:08.648Z,21.93
2022-08-07T03:19:37.575Z,21.99
2022-08-07T03:22:07.169Z,21.83
2022-08-07T03:24:36.724Z,21.16
2022-08-07T03:27:09.278Z,21.64
2022-08-07T03:29:49.305Z,21.72
2022-08-07T03:32:20.274Z,21.61
2022-08-07T03:35:00.870Z,21.21
2022-08-07T03:37:46.114Z,21.63
2022-08-07T03:40:22.430Z,21.55
2022-08-07T03:42:52.958Z,21.42
2022-08-07T03:45:30.886Z,20.86
2022-08-07T03:48:00.899Z,20.94
2022-08-07T03:50:30.249Z,21.32
2022-08-07T03:53:00.587Z,21.71
2022-08-07T03:55:53.034Z,21.40
2022-08-07T03:59:05.270Z,21.74
2022-08-07T04:01:13.879Z,21.04
2022-08-07T04:03:49.784Z,21.02
2022-08-07T04:06:37.810Z,20.82
2022-08-07T04:09:15.511Z,21.55
2022-08-07T04:12:25.607Z,20.90
2022-08-07T04:14:43.950Z,21.22
2022-08-07T04:17:19.979Z,21.62
2022-08-07T04:19:52.066Z,21.17
2022-08-07T04:22:22.975Z,21.71
2022-08-07T04:24:52.085Z,21.90
2022-08-07T04:27:25.856Z,21.36
2022-08-07T04:30:01.990Z,22.00
2022-08-07T04:32:34.475Z,22.28
2022-08-07T04:35:05.592Z,21.98
2022-08-07T04:37:40.400Z,21.63
2022-08-07T04:40:29.644Z,21.65
2022-08-07T04:43:02.199Z,22.07
2022-08-07T04:45:57.784Z,22.59
2022-08-07T04:48:36.781Z,22.52
2022-08-07T04:51:10.907Z,22.09
2022-08-07T04:54:05.759Z,22.24
2022-08-07T04:58:15.330Z,21.65
2022-08-07T05:00:12.874Z,22.21
2022-08-07T05:02:43.408Z,22.23
2022-08-07T05:05:52.904Z,22.17
2022-08-07T05:08:13.891Z,21.67
2022-08-07T05:10:48.640Z,22.17
2022-08-07T05:14:55.448Z,22.20
2022-08-07T05:16:11.586Z,22.00
2022-08-07T05:18:48.489Z,21.53
2022-08-07T05:21:59.055Z,21.61
2022-08-07T05:24:13.386Z,22.07
2022-08-07T05:26:42.953Z,22.34
2022-08-07T05:29:17.890Z,22.34
2022-08-07T05:31:52.869Z,22.66
2022-08-07T05:34:26.291Z,22.20
2022-08-07T05:36:57.835Z,22.62
2022-08-07T05:40:14.346Z,22.02
2022-08-07T05:42:15.866Z,22.23
2022-08-07T05:45:14.210Z,22.72
2022-08-07T05:48:02.191Z,22.87
2022-08-07T05:50:34.871Z,22.34
2022-08-07T05:53:07.826Z,22.64
2022-08-07T05:56:03.212Z,22.91
2022-08-07T05:58:36.605Z,23.36
2022-08-07T06:01:08.427Z,23.51
2022-08-07T06:03:57.223Z,22.69
2022-08-07T06:06:32.366Z,23.87
2022-08-07T06:09:04.648Z,24.01
2022-08-07T06:11:34.158Z,23.39
2022-08-07T06:14:12.684Z,23.99
2022-08-07T06:16:50.774Z,24.17
2022-08-07T06:19:52.130Z,23.93
2022-08-07T06:22:23.753Z,23.86
2022-08-07T06:24:58.029Z,23.83
2022-08-07T06:28:00.702Z,24.07
2022-08-07T06:30:25.964Z,25.14
2022-08-07T06:33:05.566Z,25.37
2022-08-07T06:35:47.998Z,25.31
2022-08-07T06:38:35.855Z,25.64
2022-08-07T06:41:09.803Z,25.50
2022-08-07T06:43:46.179Z,25.57
2022-08-07T06:46:31.223Z,25.80
2022-08-07T06:49:04.033Z,25.48
2022-08-07T06:51:36.080Z,25.53
2022-08-07T06:55:31.568Z,26.26
2022-08-07T06:57:10.439Z,25.92
2022-08-07T07:00:11.806Z,26.38
2022-08-07T07:02:53.857Z,26.47
2022-08-07T07:06:03.947Z,26.76
2022-08-07T07:08:18.831Z,26.96
2022-08-07T07:10:57.319Z,26.84
2022-08-07T07:13:55.959Z,26.11
2022-08-07T07:16:27.549Z,26.82
2022-08-07T07:19:11.107Z,26.95
2022-08-07T07:22:05.122Z,26.77
2022-08-07T07:24:31.094Z,26.98
2022-08-07T07:27:05.421Z,26.95
2022-08-07T07:30:09.182Z,26.77
2022-08-07T07:32:30.280Z,26.51
2022-08-07T07:35:03.878Z,26.46
2022-08-07T07:37:45.116Z,26.75
2022-08-07T07:40:20.091Z,26.87
2022-08-07T07:42:54.143Z,26.44
2022-08-07T07:46:37.523Z,26.99
2022-08-07T07:48:34.753Z,27.12
2022-08-07T07:51:08.004Z,27.19
2022-08-07T07:53:51.221Z,26.60
2022-08-07T07:56:29.938Z,27.45
2022-08-07T07:59:02.944Z,27.78
2022-08-07T08:02:02.379Z,27.77
2022-08-07T08:04:25.743Z,27.35
2022-08-07T08:06:55.277Z,27.85
2022-08-07T08:09:29.625Z,27.97
2022-08-07T08:11:59.707Z,27.40
2022-08-07T08:14:34.190Z,28.14
2022-08-07T08:17:55.654Z,28.17
2022-08-07T08:20:20.037Z,28.27
2022-08-07T08:23:08.138Z,28.24
2022-08-07T08:25:56.728Z,28.43
2022-08-07T08:28:38.082Z,27.84
2022-08-07T08:31:16.174Z,28.59
2022-08-07T08:33:49.359Z,28.37
2022-08-07T08:36:25.573Z,27.89
2022-08-07T08:39:02.011Z,27.87
2022-08-07T08:41:56.620Z,28.45
2022-08-07T08:44:33.238Z,28.03
2022-08-07T08:47:10.078Z,28.67
2022-08-07T08:49:57.190Z,28.72
2022-08-07T08:52:40.984Z,28.56
2022-08-07T08:55:53.339Z,28.63
2022-08-07T08:58:25.035Z,28.92
2022-08-07T09:01:14.673Z,28.90
2022-08-07T09:03:56.988Z,28.94
2022-08-07T09:06:47.847Z,28.90
2022-08-07T09:09:33.324Z,28.99
2022-08-07T09:12:30.859Z,29.11
2022-08-07T09:16:24.457Z,29.09
2022-08-07T09:18:23.881Z,28.98
2022-08-07T09:21:03.780Z,29.22
2022-08-07T09:24:34.203Z,29.34
2022-08-07T09:26:47.648Z,29.50
2022-08-07T09:30:06.113Z,29.47
2022-08-07T09:32:26.560Z,29.20
2022-08-07T09:36:02.769Z,28.66
2022-08-07T09:38:03.632Z,28.68
2022-08-07T09:40:53.426Z,28.64
2022-08-07T09:44:03.348Z,28.57
2022-08-07T09:47:49.845Z,28.78
2022-08-07T09:50:18.200Z,29.01
2022-08-07T09:52:36.315Z,29.29
2022-08-07T09:55:17.431Z,29.45
2022-08-07T09:58:38.436Z,29.65
2022-08-07T10:01:52.240Z,29.88
2022-08-07T10:04:33.308Z,30.08
2022-08-07T10:07:52.241Z,30.18
2022-08-07T10:10:48.316Z,29.90
2022-08-07T10:14:00.097Z,29.95
2022-08-07T10:17:14.165Z,30.35
2022-08-07T10:20:02.159Z,30.60
2022-08-07T10:22:45.217Z,30.13
2022-08-07T10:25:22.991Z,29.98
2022-08-07T10:28:12.920Z,30.59
2022-08-07T10:30:54.651Z,30.47
2022-08-07T10:34:05.557Z,30.42
2022-08-07T10:36:55.128Z,30.67
2022-08-07T10:39:42.198Z,30.33
2022-08-07T10:42:36.493Z,30.46
2022-08-07T10:45:16.818Z,30.45
2022-08-07T10:48:03.062Z,30.55
2022-08-07T10:50:35.468Z,30.23
2022-08-07T10:53:12.142Z,30.55
2022-08-07T10:55:53.788Z,30.66
2022-08-07T10:58:47.608Z,30.19
2022-08-07T11:01:52.069Z,30.85
2022-08-07T11:04:42.104Z,30.43
2022-08-07T11:07:56.879Z,30.69
2022-08-07T11:10:20.113Z,30.82
2022-08-07T11:13:02.259Z,30.79
2022-08-07T11:15:35.551Z,30.50
2022-08-07T11:18:15.953Z,30.90
2022-08-07T11:20:52.839Z,31.08
2022-08-07T11:23:30.772Z,31.13
2022-08-07T11:26:13.342Z,30.89
2022-08-07T11:28:55.186Z,30.75
2022-08-07T11:31:35.280Z,31.02
2022-08-07T11:34:17.803Z,30.91
2022-08-07T11:37:00.490Z,31.01
2022-08-07T11:40:00.357Z,31.20
2022-08-07T11:42:40.228Z,31.22
2022-08-07T11:45:23.820Z,31.73
2022-08-07T11:48:29.677Z,31.75
2022-08-07T11:51:41.575Z,31.48
2022-08-07T11:54:46.458Z,31.44
2022-08-07T11:57:57.790Z,31.68
2022-08-07T12:00:21.224Z,31.52
2022-08-07T12:03:45.674Z,31.07
2022-08-07T12:06:37.033Z,31.05
2022-08-07T12:09:16.236Z,30.96
2022-08-07T12:12:08.894Z,30.86
2022-08-07T12:14:56.074Z,30.82
2022-08-07T12:17:35.586Z,30.82
2022-08-07T12:20:19.978Z,30.56
2022-08-07T12:23:15.388Z,30.62
2022-08-07T12:26:22.419Z,30.13
2022-08-07T12:28:53.063Z,30.46
2022-08-07T12:31:37.651Z,30.33
2022-08-07T12:34:21.204Z,30.38
2022-08-07T12:36:52.797Z,30.36
2022-08-07T12:39:43.818Z,30.23
2022-08-07T12:42:14.198Z,30.26
2022-08-07T12:44:47.693Z,30.14
2022-08-07T12:47:26.974Z,30.75
2022-08-07T12:50:39.449Z,30.96
2022-08-07T12:53:01.056Z,30.80
2022-08-07T12:55:40.593Z,31.23
2022-08-07T12:58:13.594Z,31.01
2022-08-07T13:01:03.279Z,30.92
2022-08-07T13:04:03.156Z,30.85
2022-08-07T13:07:18.036Z,30.71
2022-08-07T13:10:38.009Z,30.63
2022-08-07T13:13:47.540Z,30.74
2022-08-07T13:16:17.340Z,30.69
2022-08-07T13:18:54.906Z,30.52
2022-08-07T13:21:37.347Z,30.49
2022-08-07T13:24:25.742Z,30.40
2022-08-07T13:27:02.872Z,30.49
2022-08-07T13:29:46.973Z,30.47
2022-08-07T13:32:31.753Z,30.32
2022-08-07T13:35:08.949Z,30.16
2022-08-07T13:37:59.063Z,30.20
2022-08-07T13:40:41.918Z,30.06
2022-08-07T13:43:13.573Z,30.02
2022-08-07T13:46:11.999Z,29.98
2022-08-07T13:48:38.899Z,29.88
2022-08-07T13:51:26.984Z,29.47
2022-08-07T13:54:03.316Z,30.13
2022-08-07T13:56:35.435Z,30.11
2022-08-07T13:59:12.768Z,30.23
2022-08-07T14:02:04.069Z,30.20
2022-08-07T14:04:37.968Z,30.07
2022-08-07T14:07:16.838Z,29.89
2022-08-07T14:10:08.424Z,30.14
2022-08-07T14:12:49.274Z,29.14
2022-08-07T14:15:31.918Z,29.74
2022-08-07T14:18:24.113Z,29.41
2022-08-07T14:21:08.420Z,29.05
2022-08-07T14:23:59.258Z,28.58
2022-08-07T14:30:07.229Z,28.12
2022-08-07T14:32:19.143Z,27.95
2022-08-07T14:34:49.662Z,28.13
2022-08-07T14:37:39.317Z,28.28
2022-08-07T14:40:18.149Z,28.05
2022-08-07T14:42:59.922Z,28.03
2022-08-07T14:45:49.447Z,28.21
2022-08-07T14:48:21.162Z,28.28
2022-08-07T14:50:54.167Z,28.27
2022-08-07T14:53:49.987Z,28.04
2022-08-07T14:56:30.372Z,28.05
2022-08-07T14:59:13.407Z,28.11
2022-08-07T15:04:31.625Z,27.68
2022-08-07T15:07:03.335Z,27.75
2022-08-07T15:09:58.998Z,27.99
2022-08-07T15:12:35.988Z,28.13
2022-08-07T15:15:09.278Z,28.23
2022-08-07T15:18:02.869Z,27.92
2022-08-07T15:20:54.600Z,27.73
2022-08-07T15:25:15.378Z,27.71
2022-08-07T15:26:28.700Z,27.48
2022-08-07T15:30:04.880Z,27.38
2022-08-07T15:34:50.641Z,27.18
2022-08-07T15:38:17.903Z,27.36
2022-08-07T15:40:34.722Z,27.54
2022-08-07T15:43:53.028Z,27.73
2022-08-07T15:46:32.460Z,28.02
2022-08-07T15:49:13.293Z,28.04
2022-08-07T15:54:34.273Z,28.30
2022-08-07T15:57:05.908Z,28.41
2022-08-07T15:59:38.993Z,28.35
2022-08-07T16:02:15.587Z,28.06
2022-08-07T16:04:44.772Z,28.25
2022-08-07T16:08:33.589Z,28.46
2022-08-07T16:10:14.662Z,28.38
2022-08-07T16:13:04.647Z,28.48
2022-08-07T16:15:57.724Z,28.40
2022-08-07T16:18:50.897Z,28.28
2022-08-07T16:22:03.394Z,28.16
2022-08-07T16:24:34.216Z,28.22
2022-08-07T16:27:18.648Z,28.13
2022-08-07T16:30:29.787Z,27.97
2022-08-07T16:34:03.219Z,28.06
2022-08-07T16:36:20.043Z,28.17
2022-08-07T16:39:04.147Z,28.02
2022-08-07T16:42:06.826Z,28.06
2022-08-07T16:45:15.265Z,27.81
2022-08-07T16:48:37.644Z,27.62
2022-08-07T16:52:01.613Z,27.41
2022-08-07T16:54:37.802Z,27.55
2022-08-07T16:58:01.115Z,27.27
2022-08-07T17:00:17.326Z,27.07
2022-08-07T17:03:17.979Z,26.74
2022-08-07T17:06:19.444Z,26.67
2022-08-07T17:12:04.434Z,26.40
2022-08-07T17:14:47.167Z,25.96
2022-08-07T17:17:44.333Z,25.81
2022-08-07T17:20:29.688Z,25.80
2022-08-07T17:23:08.852Z,25.69
2022-08-07T17:25:54.666Z,25.81
2022-08-07T17:28:31.059Z,25.80
2022-08-07T17:31:16.101Z,25.91
2022-08-07T17:34:15.051Z,25.81
2022-08-07T17:36:57.695Z,25.49
2022-08-07T17:39:57.623Z,25.65
2022-08-07T17:42:58.578Z,25.82
2022-08-07T17:45:38.778Z,25.86
2022-08-07T17:48:13.009Z,25.94
2022-08-07T17:50:54.205Z,26.00
2022-08-07T17:54:01.768Z,25.91
2022-08-07T17:56:28.531Z,26.08
2022-08-07T17:59:11.251Z,25.52
2022-08-07T18:01:51.447Z,25.97
2022-08-07T18:04:43.393Z,25.81
2022-08-07T18:07:34.388Z,25.79
2022-08-07T18:10:10.436Z,25.81
2022-08-07T18:13:20.614Z,24.81
2022-08-07T18:16:06.233Z,25.94
2022-08-07T18:21:00.984Z,26.00
2022-08-07T18:21:53.498Z,25.74
2022-08-07T18:24:34.241Z,25.98
2022-08-07T18:27:39.102Z,26.15
2022-08-07T18:30:31.429Z,26.17
2022-08-07T18:33:55.284Z,25.87
2022-08-07T18:36:33.789Z,25.74
2022-08-07T18:40:07.792Z,25.52
2022-08-07T18:42:13.031Z,25.95
2022-08-07T18:48:01.333Z,25.85
2022-08-07T18:50:46.265Z,25.82
2022-08-07T18:53:36.816Z,25.41
2022-08-07T18:56:15.997Z,25.05
2022-08-07T18:58:58.394Z,24.90
2022-08-07T19:02:20.147Z,24.97
2022-08-07T19:04:56.198Z,24.28
2022-08-07T19:07:34.398Z,24.34
2022-08-07T19:10:14.892Z,24.29
2022-08-07T19:12:58.233Z,23.44
2022-08-07T19:16:05.428Z,24.01
2022-08-07T19:18:45.047Z,24.39
2022-08-07T19:21:51.385Z,24.68
2022-08-07T19:24:31.011Z,24.81
2022-08-07T19:28:58.904Z,24.97
2022-08-07T19:31:05.680Z,24.87
2022-08-07T19:32:51.240Z,24.96
2022-08-07T19:35:24.638Z,25.04
2022-08-07T19:37:58.368Z,25.12
2022-08-07T19:40:31.165Z,25.14
2022-08-07T19:43:10.794Z,25.11
2022-08-07T19:46:05.615Z,25.12
2022-08-07T19:48:43.601Z,25.11
2022-08-07T19:51:20.112Z,25.00
2022-08-07T19:54:33.747Z,24.97
2022-08-07T19:57:24.911Z,25.03
2022-08-07T19:59:41.437Z,24.80
2022-08-07T20:02:19.795Z,25.01
2022-08-07T20:04:52.232Z,25.12
2022-08-07T20:07:45.796Z,25.03
2022-08-07T20:10:36.712Z,25.00
2022-08-07T20:13:23.271Z,24.81
2022-08-07T20:15:53.782Z,25.11
2022-08-07T20:18:33.537Z,25.11
2022-08-07T20:21:22.027Z,24.73
2022-08-07T20:23:57.997Z,24.91
2022-08-07T20:26:38.612Z,24.96
2022-08-07T20:29:47.019Z,24.79
2022-08-07T20:32:05.144Z,24.67
2022-08-07T20:34:50.098Z,24.94
2022-08-07T20:37:24.351Z,24.79
2022-08-07T20:40:02.449Z,24.82
2022-08-07T20:42:33.603Z,24.90
2022-08-07T20:45:04.486Z,24.87
2022-08-07T20:47:57.749Z,24.95
2022-08-07T20:50:30.407Z,24.50
2022-08-07T20:52:59.464Z,24.73
2022-08-07T20:55:32.212Z,24.78
2022-08-07T20:58:12.305Z,24.75
2022-08-07T21:00:56.143Z,24.50
2022-08-07T21:03:26.367Z,24.75
2022-08-07T21:06:00.929Z,24.49
2022-08-07T21:08:37.735Z,24.47
2022-08-07T21:11:14.233Z,24.79
2022-08-07T21:14:20.190Z,24.20
2022-08-07T21:16:56.229Z,24.12
2022-08-07T21:19:32.125Z,24.61
2022-08-07T21:22:19.828Z,24.38
2022-08-07T21:25:11.756Z,24.68
2022-08-07T21:27:53.683Z,24.60
2022-08-07T21:30:30.052Z,24.61
2022-08-07T21:33:08.122Z,24.61
2022-08-07T21:36:05.203Z,24.39
2022-08-07T21:38:34.940Z,24.32
2022-08-07T21:41:10.783Z,24.27
2022-08-07T21:43:56.118Z,24.29
2022-08-07T21:46:33.217Z,23.94
2022-08-07T21:49:14.975Z,24.04
2022-08-07T21:51:58.902Z,24.13
2022-08-07T21:54:45.908Z,23.85
2022-08-07T21:57:31.473Z,23.92
2022-08-07T22:00:22.895Z,23.66
2022-08-07T22:03:00.159Z,23.70
2022-08-07T22:05:48.226Z,24.07
2022-08-07T22:08:21.083Z,24.41
2022-08-07T22:10:55.969Z,24.09
2022-08-07T22:13:51.387Z,24.47
2022-08-07T22:16:39.867Z,24.49
2022-08-07T22:19:18.133Z,24.41
2022-08-07T22:22:10.637Z,24.08
2022-08-07T22:24:56.721Z,24.35
2022-08-07T22:27:33.979Z,24.35
2022-08-07T22:30:19.702Z,24.36
2022-08-07T22:33:04.378Z,24.07
2022-08-07T22:35:41.569Z,24.16
2022-08-07T22:38:24.106Z,24.35
2022-08-07T22:40:59.885Z,24.05
2022-08-07T22:43:35.282Z,24.25
2022-08-07T22:47:03.689Z,24.22
2022-08-07T22:49:39.606Z,24.25
2022-08-07T22:52:37.818Z,24.23
2022-08-07T22:55:30.977Z,24.23
2022-08-07T22:58:28.794Z,23.81
2022-08-07T23:01:18.965Z,24.22
2022-08-07T23:04:03.415Z,23.97
2022-08-07T23:06:58.634Z,24.14
2022-08-07T23:10:00.760Z,23.88
2022-08-07T23:12:45.396Z,23.53
2022-08-07T23:16:04.412Z,24.12
2022-08-07T23:18:22.378Z,23.68
2022-08-07T23:21:06.366Z,23.99
2022-08-07T23:24:11.674Z,24.05
2022-08-07T23:26:57.340Z,23.77
2022-08-07T23:30:37.670Z,23.86
2022-08-07T23:34:23.709Z,23.47
2022-08-07T23:36:17.231Z,23.94
2022-08-07T23:39:08.401Z,23.29
2022-08-07T23:42:04.559Z,23.58
2022-08-07T23:45:02.797Z,23.90
2022-08-07T23:47:47.942Z,23.94
2022-08-07T23:50:37.433Z,23.91
2022-08-07T23:53:22.901Z,23.86
2022-08-07T23:56:20.735Z,23.71
2022-08-07T23:59:00.314Z,22.55
